Terminal Aerodrome Forecast
Issued by NWS

Home | Current Version | Previous Version | Text Only | Print | Product List | Glossary On
Versions: 1 2 3 4 5 6 7 8 9 10 11 12 13
000
FTPQ31 PGUM 161140
TAFGUM
TAF

TAF
PTKK 161140Z 1612/1712 10009KT P6SM VCSH FEW014 SCT030 BKN120
      TEMPO 1613/1617 5SM SHRA SCT012 BKN030 OVC120=

USA.gov is the U.S. government's official web portal to all federal, state and local government web resources and services.